Time;durP1;ratioP1;P1;durP2;ratioP2;P2;SDS_P1;SDS_P2;PMS_P1;PMS_P2;Temp;Humidity;BMP_temperature;BMP_pressure;BME280_temperature;BME280_humidity;BME280_pressure;Samples;Min_cycle;Max_cycle;Signal;HPM_P1;HPM_P2
2023/04/26 00:02:53;;;;;;;9.50;4.40;;;;;;;6.74;72.19;98264.48;224772;1273;22538;-76
2023/04/26 00:07:55;;;;;;;10.80;4.20;;;;;;;6.70;71.96;98253.66;224754;1282;22530;-77
2023/04/26 00:12:57;;;;;;;9.50;4.20;;;;;;;6.63;71.87;98260.57;224724;1279;25248;-77
2023/04/26 00:17:59;;;;;;;8.80;3.90;;;;;;;6.51;71.49;98269.60;224761;1277;22681;-78
2023/04/26 00:23:01;;;;;;;11.80;4.00;;;;;;;6.38;71.38;98277.07;224833;1279;22619;-76
2023/04/26 00:28:04;;;;;;;10.20;3.80;;;;;;;6.23;71.37;98280.95;224771;1281;25431;-78
2023/04/26 00:33:06;;;;;;;7.80;3.40;;;;;;;6.08;71.05;98289.66;224750;1283;22546;-78
2023/04/26 00:38:08;;;;;;;9.20;3.70;;;;;;;5.95;71.27;98288.51;224759;1283;23978;-78
2023/04/26 00:43:10;;;;;;;8.90;3.80;;;;;;;5.81;71.15;98293.58;224781;1281;22552;-78
2023/04/26 00:48:12;;;;;;;8.60;3.60;;;;;;;5.66;71.11;98293.48;224782;1281;22540;-77
2023/04/26 00:53:16;;;;;;;9.40;4.00;;;;;;;5.50;71.09;98300.46;224721;1283;22527;-78
2023/04/26 00:58:18;;;;;;;8.20;3.60;;;;;;;5.37;71.19;98309.13;224770;1281;22540;-78
2023/04/26 01:03:21;;;;;;;9.10;3.90;;;;;;;5.24;71.30;98316.65;224802;1281;22534;-79
2023/04/26 01:08:23;;;;;;;8.70;4.00;;;;;;;5.10;71.50;98314.50;224819;1280;22539;-78
2023/04/26 01:13:25;;;;;;;7.80;3.70;;;;;;;4.98;71.67;98315.79;224743;1283;24258;-77
2023/04/26 01:18:27;;;;;;;11.20;4.30;;;;;;;4.85;71.93;98318.16;224774;1261;25582;-78
2023/04/26 01:23:30;;;;;;;9.20;5.20;;;;;;;4.73;72.05;98319.37;224886;1283;22541;-77
2023/04/26 01:28:33;;;;;;;9.50;4.50;;;;;;;4.61;72.10;98323.67;224887;1283;22536;-77
2023/04/26 01:33:38;;;;;;;8.10;4.10;;;;;;;4.51;72.37;98332.11;224819;1281;22568;-77
2023/04/26 01:38:40;;;;;;;9.20;4.20;;;;;;;4.41;72.52;98330.93;224843;1277;22534;-77
2023/04/26 01:43:42;;;;;;;11.10;4.20;;;;;;;4.30;72.57;98330.63;224788;1280;24314;-77
2023/04/26 01:48:44;;;;;;;9.60;4.80;;;;;;;4.21;72.64;98332.60;224750;1277;22465;-78
2023/04/26 01:53:47;;;;;;;8.40;4.20;;;;;;;4.14;72.84;98335.30;224844;1279;24258;-78
2023/04/26 01:58:49;;;;;;;12.50;4.40;;;;;;;4.09;73.12;98336.91;224773;1268;22540;-77
2023/04/26 02:03:51;;;;;;;11.50;4.40;;;;;;;4.02;73.12;98341.22;224733;1283;22650;-77
2023/04/26 02:08:54;;;;;;;10.10;5.10;;;;;;;3.93;73.30;98344.72;224721;1280;22604;-77
2023/04/26 02:13:56;;;;;;;10.10;4.40;;;;;;;3.84;73.46;98345.99;224736;1280;22531;-77
2023/04/26 02:18:58;;;;;;;9.90;5.00;;;;;;;3.76;73.44;98345.67;224701;1277;22523;-77
2023/04/26 02:24:01;;;;;;;9.00;4.30;;;;;;;3.66;73.46;98343.38;224786;1269;24314;-78
2023/04/26 02:29:05;;;;;;;7.90;3.80;;;;;;;3.56;73.75;98337.38;224778;1282;22645;-78
2023/04/26 02:34:07;;;;;;;7.70;4.40;;;;;;;3.45;73.84;98336.59;224721;1283;22530;-76
2023/04/26 02:39:10;;;;;;;9.80;4.40;;;;;;;3.34;73.88;98339.42;224768;1283;22595;-76
2023/04/26 02:44:13;;;;;;;10.50;4.20;;;;;;;3.24;74.20;98342.95;224748;1283;22558;-77
2023/04/26 02:49:15;;;;;;;9.90;4.70;;;;;;;3.14;74.33;98342.67;224801;1283;23345;-78
2023/04/26 02:54:17;;;;;;;11.00;5.20;;;;;;;3.04;74.58;98339.17;224739;1283;22565;-77
2023/04/26 02:59:20;;;;;;;13.80;5.50;;;;;;;2.93;74.94;98342.29;224824;1281;22563;-78
2023/04/26 03:04:22;;;;;;;11.70;5.90;;;;;;;2.85;75.00;98341.58;224738;1282;22948;-78
2023/04/26 03:09:24;;;;;;;13.40;5.70;;;;;;;2.77;75.24;98352.75;224791;1283;22673;-78
2023/04/26 03:14:26;;;;;;;10.40;6.30;;;;;;;2.70;75.43;98358.48;224812;1281;24015;-76
2023/04/26 03:19:30;;;;;;;12.30;5.60;;;;;;;2.63;75.54;98363.16;224818;1280;22524;-81
2023/04/26 03:24:33;;;;;;;11.20;6.40;;;;;;;2.57;75.75;98365.18;224768;1283;22610;-76
2023/04/26 03:29:35;;;;;;;16.30;6.50;;;;;;;2.52;76.09;98371.23;224760;1283;26320;-77
2023/04/26 03:34:37;;;;;;;12.70;6.10;;;;;;;2.46;76.00;98376.08;224797;1281;22539;-78
2023/04/26 03:39:39;;;;;;;11.90;5.90;;;;;;;2.42;75.81;98383.97;224821;1281;22646;-78
2023/04/26 03:44:41;;;;;;;13.60;6.30;;;;;;;2.38;76.44;98387.88;224779;1283;24262;-76
2023/04/26 03:49:43;;;;;;;12.50;5.60;;;;;;;2.34;76.57;98397.64;224800;1283;24399;-79
2023/04/26 03:54:45;;;;;;;11.10;6.30;;;;;;;2.32;76.59;98397.48;224825;1281;22537;-78
2023/04/26 03:59:48;;;;;;;13.00;5.90;;;;;;;2.33;76.98;98401.21;224843;1281;22531;-78
2023/04/26 04:04:51;;;;;;;8.10;5.50;;;;;;;2.35;76.84;98408.45;224716;1282;24424;-77
2023/04/26 04:09:53;;;;;;;10.00;4.90;;;;;;;2.40;76.93;98415.48;224805;1281;22616;-77
2023/04/26 04:14:55;;;;;;;11.00;5.00;;;;;;;2.45;77.09;98417.44;224803;1283;22596;-77
2023/04/26 04:20:03;;;;;;;10.20;6.30;;;;;;;2.51;77.18;98425.53;224859;1283;25107;-76
2023/04/26 04:25:09;;;;;;;11.40;6.00;;;;;;;2.60;77.15;98427.77;224810;1283;22561;-77
2023/04/26 04:30:11;;;;;;;11.50;6.40;;;;;;;2.70;77.02;98432.19;224792;1281;22763;-77
2023/04/26 04:35:14;;;;;;;12.40;5.50;;;;;;;2.80;77.30;98435.98;224771;1281;22524;-78
2023/04/26 04:40:16;;;;;;;12.40;6.10;;;;;;;2.88;77.28;98437.46;224708;1282;22557;-79
2023/04/26 04:45:21;;;;;;;11.30;5.40;;;;;;;2.99;77.10;98439.33;224662;1283;22547;-78
2023/04/26 04:50:25;;;;;;;10.00;5.60;;;;;;;3.12;77.12;98445.72;224812;1281;22530;-77
2023/04/26 04:55:27;;;;;;;13.40;5.90;;;;;;;3.21;76.90;98447.60;224829;1282;22575;-78
2023/04/26 05:00:30;;;;;;;9.70;5.30;;;;;;;3.34;76.88;98451.79;224794;1281;22530;-78
2023/04/26 05:05:37;;;;;;;9.90;4.60;;;;;;;3.46;76.81;98457.44;224798;1283;22526;-77
2023/04/26 05:10:40;;;;;;;9.80;5.00;;;;;;;3.62;76.58;98457.36;224672;1283;25435;-78
2023/04/26 05:15:42;;;;;;;11.20;4.80;;;;;;;3.77;76.36;98455.48;224793;1283;22541;-78
2023/04/26 05:20:44;;;;;;;8.40;4.00;;;;;;;3.91;75.95;98457.86;224821;1283;22640;-77
2023/04/26 05:25:47;;;;;;;7.20;3.60;;;;;;;4.05;75.69;98460.30;224836;1281;22542;-77
2023/04/26 05:31:09;;;;;;;7.60;3.90;;;;;;;4.21;75.47;98460.03;224678;1283;22491;-74
2023/04/26 05:36:31;;;;;;;5.50;3.40;;;;;;;4.40;75.19;98467.58;224688;1281;22566;-74
2023/04/26 05:41:33;;;;;;;9.30;3.30;;;;;;;4.57;74.82;98467.87;224602;1280;22529;-75
2023/04/26 05:46:35;;;;;;;6.90;3.30;;;;;;;4.74;74.51;98472.71;224525;1278;22526;-75
2023/04/26 05:51:37;;;;;;;6.90;2.90;;;;;;;4.90;74.00;98473.84;224188;1267;22550;-74
2023/04/26 05:56:40;;;;;;;5.60;2.90;;;;;;;5.08;74.11;98471.23;223940;1262;22527;-74
2023/04/26 06:01:43;;;;;;;8.60;2.60;;;;;;;5.26;73.57;98482.23;223103;1261;23036;-74
2023/04/26 06:06:45;;;;;;;6.50;2.70;;;;;;;5.43;72.88;98481.56;223056;1264;139770;-74
2023/04/26 06:11:47;;;;;;;7.10;2.70;;;;;;;5.59;72.46;98493.91;222892;1262;138514;-74
2023/04/26 06:16:49;;;;;;;6.40;2.30;;;;;;;5.75;71.73;98510.73;223129;1268;139239;-74
2023/04/26 06:21:54;;;;;;;3.90;2.00;;;;;;;5.87;70.98;98515.59;223273;1261;138496;-74
2023/04/26 06:26:56;;;;;;;3.70;2.00;;;;;;;5.96;70.43;98510.25;226689;1271;24216;-75
2023/04/26 06:31:59;;;;;;;6.60;2.10;;;;;;;6.09;70.12;98514.92;226714;1277;24473;-75
2023/04/26 06:37:01;;;;;;;8.20;2.10;;;;;;;6.25;69.81;98509.72;226620;1283;138354;-75
2023/04/26 06:42:04;;;;;;;6.90;2.40;;;;;;;6.48;69.28;98512.42;226541;1282;138734;-76
2023/04/26 06:47:22;;;;;;;2.80;2.00;;;;;;;6.74;69.08;98503.21;226540;1267;139228;-75
2023/04/26 06:52:25;;;;;;;4.20;2.10;;;;;;;7.14;68.76;98505.41;226680;1277;138479;-75
2023/04/26 06:57:27;;;;;;;5.20;2.00;;;;;;;7.43;68.14;98509.08;226761;1281;139493;-75
2023/04/26 07:02:29;;;;;;;4.70;2.30;;;;;;;7.45;67.31;98518.41;226773;1274;24209;-75
2023/04/26 07:07:31;;;;;;;4.60;1.80;;;;;;;7.39;66.87;98522.61;226676;1265;138905;-74
2023/04/26 07:12:33;;;;;;;3.50;1.60;;;;;;;7.30;66.84;98518.22;226694;1272;138786;-74
2023/04/26 07:17:35;;;;;;;4.80;1.80;;;;;;;7.27;67.02;98525.96;226651;1270;139641;-75
2023/04/26 07:22:37;;;;;;;3.40;1.70;;;;;;;7.42;66.65;98524.46;226568;1278;138537;-74
2023/04/26 07:27:40;;;;;;;3.40;1.50;;;;;;;7.74;66.72;98522.52;226598;1273;138527;-74
2023/04/26 07:32:42;;;;;;;5.70;1.90;;;;;;;7.88;65.93;98531.59;226656;1277;24123;-74
2023/04/26 07:37:44;;;;;;;6.80;1.70;;;;;;;7.89;65.14;98534.84;226599;1273;137951;-72
2023/04/26 07:42:46;;;;;;;4.90;1.70;;;;;;;7.83;64.48;98537.95;226608;1280;137609;-73
2023/04/26 07:47:48;;;;;;;4.30;2.00;;;;;;;7.83;64.21;98540.41;226565;1281;138507;-73
2023/04/26 07:52:51;;;;;;;4.20;1.80;;;;;;;7.94;63.99;98544.42;226539;1273;138835;-74
2023/04/26 07:57:53;;;;;;;5.80;1.50;;;;;;;8.04;63.31;98538.23;226502;1283;138273;-73
2023/04/26 08:02:55;;;;;;;5.80;1.80;;;;;;;8.33;63.73;98541.73;226716;1281;24981;-73
2023/04/26 08:07:57;;;;;;;3.80;1.50;;;;;;;8.34;63.05;98540.73;226639;1276;138092;-74
2023/04/26 08:13:02;;;;;;;3.30;1.60;;;;;;;8.32;62.21;98538.95;226572;1277;139329;-73
2023/04/26 08:18:04;;;;;;;4.70;2.30;;;;;;;8.46;61.79;98541.98;226602;1265;138244;-73
2023/04/26 08:23:06;;;;;;;6.30;2.40;;;;;;;8.71;61.20;98540.09;226611;1276;138142;-73
2023/04/26 08:28:08;;;;;;;4.30;2.30;;;;;;;8.77;61.08;98544.31;226562;1283;137880;-73
2023/04/26 08:33:10;;;;;;;3.90;2.10;;;;;;;8.63;61.03;98556.67;226577;1276;138220;-74
2023/04/26 08:38:12;;;;;;;5.40;1.90;;;;;;;8.50;61.48;98549.16;226764;1277;25434;-76
2023/04/26 08:43:16;;;;;;;4.70;1.60;;;;;;;8.45;61.00;98551.52;226596;1282;138387;-75
2023/04/26 08:48:21;;;;;;;6.30;2.10;;;;;;;8.39;60.05;98546.73;226630;1282;137631;-74
2023/04/26 08:53:24;;;;;;;4.00;1.90;;;;;;;8.31;59.88;98554.77;226579;1281;139165;-74
2023/04/26 08:58:27;;;;;;;4.20;2.10;;;;;;;8.24;58.71;98545.81;226739;1272;138636;-74
2023/04/26 09:03:29;;;;;;;2.30;1.60;;;;;;;8.39;58.91;98544.20;226755;1281;138122;-75
2023/04/26 09:08:35;;;;;;;4.00;1.70;;;;;;;8.82;59.40;98538.25;226853;1281;22235;-74
2023/04/26 09:13:37;;;;;;;4.70;1.30;;;;;;;8.87;58.11;98557.29;226740;1281;137504;-76
2023/04/26 09:18:50;;;;;;;4.10;1.50;;;;;;;8.60;57.64;98559.06;226695;1268;138431;-74
2023/04/26 09:24:03;;;;;;;3.70;1.30;;;;;;;8.30;57.91;98564.62;226640;1264;138005;-74
2023/04/26 09:29:16;;;;;;;3.40;1.50;;;;;;;8.29;58.10;98558.58;226634;1273;138665;-74
2023/04/26 09:34:19;;;;;;;2.50;1.10;;;;;;;8.66;59.11;98552.84;226757;1276;138050;-74
2023/04/26 09:39:33;;;;;;;5.40;1.10;;;;;;;8.72;57.14;98561.55;226723;1283;137680;-74
2023/04/26 09:44:35;;;;;;;4.00;1.20;;;;;;;8.52;55.86;98562.19;226863;1273;24452;-75
2023/04/26 09:49:44;;;;;;;3.10;1.10;;;;;;;8.70;56.62;98557.75;226734;1277;138046;-77
2023/04/26 09:54:51;;;;;;;2.00;1.00;;;;;;;9.26;55.55;98552.59;226761;1278;137758;-75
2023/04/26 09:59:55;;;;;;;2.10;1.10;;;;;;;9.83;55.15;98549.59;226623;1270;138037;-75
2023/04/26 10:04:58;;;;;;;1.40;1.00;;;;;;;10.17;54.03;98553.68;225667;1283;139819;-75
2023/04/26 10:10:02;;;;;;;6.20;1.40;;;;;;;10.16;52.50;98551.48;223469;1283;138537;-76
2023/04/26 10:15:08;;;;;;;3.50;1.10;;;;;;;9.80;52.99;98552.70;223484;1263;138344;-74
2023/04/26 10:20:14;;;;;;;3.70;0.90;;;;;;;9.41;52.73;98548.96;223567;1283;22554;-77
2023/04/26 10:25:16;;;;;;;1.40;0.60;;;;;;;9.58;53.23;98549.91;225992;1276;242131;-76
2023/04/26 10:30:21;;;;;;;4.80;1.10;;;;;;;9.60;51.87;98548.79;226699;1276;137961;-76
2023/04/26 10:35:29;;;;;;;2.50;0.90;;;;;;;9.54;52.54;98551.08;226643;1277;138872;-76
2023/04/26 10:40:32;;;;;;;3.80;0.90;;;;;;;9.59;52.64;98553.85;226637;1276;137784;-73
2023/04/26 10:45:36;;;;;;;5.30;1.20;;;;;;;9.71;52.57;98555.02;226694;1270;138098;-75
2023/04/26 10:51:00;;;;;;;3.30;0.80;;;;;;;10.04;53.00;98549.33;226698;1282;24187;-74
2023/04/26 10:56:02;;;;;;;6.10;1.30;;;;;;;10.57;52.54;98552.48;226827;1277;22238;-78
2023/04/26 11:01:17;;;;;;;2.20;0.80;;;;;;;10.41;49.92;98563.70;226657;1277;138038;-74
2023/04/26 11:06:22;;;;;;;3.00;0.90;;;;;;;9.91;49.97;98549.83;226763;1283;22203;-76
2023/04/26 11:11:26;;;;;;;3.40;1.40;;;;;;;9.65;49.95;98563.29;226740;1277;22218;-78
2023/04/26 11:16:31;;;;;;;1.60;0.80;;;;;;;9.57;50.04;98566.40;226815;1283;22801;-77
2023/04/26 11:21:33;;;;;;;2.80;0.90;;;;;;;9.81;49.94;98559.42;226824;1283;22118;-75
2023/04/26 11:26:35;;;;;;;4.20;1.40;;;;;;;10.23;50.43;98553.77;226792;1283;24083;-75
2023/04/26 11:31:38;;;;;;;3.90;1.10;;;;;;;10.85;50.91;98545.98;226825;1283;24115;-76
2023/04/26 11:36:40;;;;;;;3.70;0.90;;;;;;;11.38;50.68;98540.67;226798;1283;24258;-77
2023/04/26 11:41:42;;;;;;;2.60;0.60;;;;;;;11.42;49.18;98553.54;226874;1280;22216;-76
2023/04/26 11:46:48;;;;;;;3.60;0.90;;;;;;;11.07;47.64;98555.85;226769;1277;24217;-77
2023/04/26 11:51:50;;;;;;;3.10;0.70;;;;;;;10.70;47.42;98563.34;226670;1282;24230;-76
2023/04/26 11:56:52;;;;;;;1.60;0.80;;;;;;;10.47;48.04;98572.45;226768;1281;24197;-76
2023/04/26 12:01:55;;;;;;;2.70;1.00;;;;;;;10.75;48.84;98569.42;226764;1280;24227;-77
2023/04/26 12:06:58;;;;;;;2.70;1.40;;;;;;;11.15;48.88;98556.95;226765;1266;24172;-78
2023/04/26 12:12:01;;;;;;;1.20;0.60;;;;;;;11.22;48.32;98562.52;226557;1283;24696;-77
2023/04/26 12:17:05;;;;;;;3.70;0.80;;;;;;;11.04;47.14;98582.06;226818;1265;22880;-77
2023/04/26 12:22:07;;;;;;;1.90;0.70;;;;;;;11.07;47.81;98572.08;226695;1284;24148;-76
2023/04/26 12:27:19;;;;;;;4.40;0.80;;;;;;;11.32;47.41;98569.51;226777;1276;24788;-77
2023/04/26 12:32:22;;;;;;;3.40;1.10;;;;;;;11.50;47.64;98574.36;225988;1280;22658;-76
2023/04/26 12:37:24;;;;;;;3.00;1.30;;;;;;;11.46;48.10;98567.31;223527;1270;22543;-76
2023/04/26 12:42:26;;;;;;;4.70;1.00;;;;;;;11.20;48.43;98574.62;223644;1280;25408;-78
2023/04/26 12:47:30;;;;;;;4.10;1.00;;;;;;;10.88;48.24;98574.79;223588;1260;23297;-75
2023/04/26 12:52:32;;;;;;;2.70;0.80;;;;;;;10.57;48.27;98575.84;223451;1280;22557;-73
2023/04/26 12:57:36;;;;;;;3.20;1.10;;;;;;;10.41;48.72;98576.88;223574;1273;22547;-75
2023/04/26 13:02:38;;;;;;;2.80;1.00;;;;;;;10.45;49.07;98578.45;223580;1281;26214;-75
2023/04/26 13:07:43;;;;;;;2.30;0.80;;;;;;;10.47;49.20;98587.90;223577;1283;23039;-75
2023/04/26 13:12:45;;;;;;;2.60;0.90;;;;;;;10.45;49.91;98581.20;226714;1283;22383;-76
2023/04/26 13:17:47;;;;;;;3.20;0.90;;;;;;;10.74;49.89;98581.73;226730;1278;22346;-75
2023/04/26 13:22:50;;;;;;;3.20;1.10;;;;;;;10.83;48.76;98579.99;226855;1277;25406;-75
2023/04/26 13:27:53;;;;;;;3.80;1.30;;;;;;;10.61;49.11;98598.48;226841;1281;23199;-75
2023/04/26 13:32:56;;;;;;;1.80;0.80;;;;;;;10.30;50.20;98611.96;226807;1281;24300;-76
2023/04/26 13:38:01;;;;;;;1.40;0.70;;;;;;;10.04;49.85;98617.23;226834;1282;25183;-75
2023/04/26 13:43:03;;;;;;;2.20;0.70;;;;;;;10.02;49.97;98614.89;226404;1276;25321;-81
2023/04/26 13:48:05;;;;;;;1.40;0.70;;;;;;;10.18;49.64;98613.20;223452;1265;23265;-76
2023/04/26 13:53:07;;;;;;;1.40;0.60;;;;;;;10.25;48.50;98610.20;223496;1283;22597;-75
2023/04/26 13:58:10;;;;;;;2.10;1.20;;;;;;;10.26;49.23;98603.73;223995;1269;24404;-78
2023/04/26 14:03:12;;;;;;;2.50;0.80;;;;;;;10.39;50.16;98609.61;224232;1283;22572;-76
2023/04/26 14:08:14;;;;;;;2.60;1.00;;;;;;;10.39;49.68;98607.40;224638;1279;22774;-79
2023/04/26 14:13:17;;;;;;;1.70;0.90;;;;;;;10.43;49.70;98614.38;224592;1283;22673;-80
2023/04/26 14:18:19;;;;;;;1.70;0.80;;;;;;;10.40;49.39;98611.74;224731;1260;24450;-80
2023/04/26 14:23:21;;;;;;;3.10;1.00;;;;;;;10.52;49.48;98611.62;224470;1283;22621;-81
2023/04/26 14:28:23;;;;;;;3.00;1.30;;;;;;;10.41;49.49;98621.24;224411;1284;23737;-80
2023/04/26 14:33:25;;;;;;;3.60;1.20;;;;;;;10.20;49.91;98631.52;224729;1284;22534;-79
2023/04/26 14:38:27;;;;;;;2.80;1.00;;;;;;;10.08;50.87;98631.20;224646;1280;22543;-80
2023/04/26 14:43:30;;;;;;;3.40;1.20;;;;;;;9.99;50.66;98618.88;224662;1281;23785;-82
2023/04/26 14:48:33;;;;;;;3.20;1.00;;;;;;;9.94;50.89;98619.16;224697;1284;22685;-83
2023/04/26 14:53:34;;;;;;;3.20;1.40;;;;;;;9.86;50.64;98623.63;224789;1280;22533;-79
2023/04/26 14:58:37;;;;;;;3.70;1.00;;;;;;;9.85;50.19;98622.23;224649;1283;22538;-80
2023/04/26 15:03:39;;;;;;;2.80;1.20;;;;;;;10.11;49.85;98625.85;224850;1277;22545;-82
2023/04/26 15:08:41;;;;;;;3.00;1.30;;;;;;;10.16;50.21;98631.58;224834;1273;22567;-82
2023/04/26 15:13:43;;;;;;;3.80;1.00;;;;;;;9.99;50.91;98633.98;224741;1283;22994;-82
2023/04/26 15:18:45;;;;;;;1.70;0.80;;;;;;;9.82;51.49;98648.66;224704;1283;23017;-80
2023/04/26 15:23:48;;;;;;;2.50;1.00;;;;;;;9.68;51.42;98644.20;224842;1283;22550;-82
2023/04/26 15:28:50;;;;;;;3.60;1.00;;;;;;;9.67;51.48;98641.08;224844;1277;25323;-80
2023/04/26 15:33:55;;;;;;;4.00;1.20;;;;;;;9.85;51.80;98639.48;224753;1279;23032;-84
2023/04/26 15:38:57;;;;;;;2.40;0.90;;;;;;;9.90;51.26;98641.61;224744;1284;22566;-83
2023/04/26 15:43:59;;;;;;;5.50;2.40;;;;;;;9.76;51.25;98647.70;224759;1284;22533;-82
2023/04/26 15:49:02;;;;;;;3.70;1.30;;;;;;;9.59;50.72;98644.70;224795;1283;22668;-82
2023/04/26 15:54:04;;;;;;;2.90;1.30;;;;;;;9.45;50.24;98643.64;224825;1282;22635;-81
2023/04/26 15:59:08;;;;;;;4.70;1.10;;;;;;;9.38;50.37;98634.48;224757;1281;22540;-81
2023/04/26 16:04:11;;;;;;;3.00;0.90;;;;;;;9.46;49.47;98641.36;224790;1281;22503;-82
2023/04/26 16:09:18;;;;;;;2.30;1.10;;;;;;;9.47;49.39;98646.48;224733;1280;22535;-83
2023/04/26 16:14:26;;;;;;;3.10;1.10;;;;;;;9.44;50.34;98647.41;224853;1277;22533;-81
2023/04/26 16:19:30;;;;;;;4.40;1.30;;;;;;;9.34;50.48;98648.13;224815;1282;22592;-82
2023/04/26 16:24:32;;;;;;;2.50;1.30;;;;;;;9.19;50.85;98658.02;224887;1284;22502;-81
2023/04/26 16:29:34;;;;;;;2.90;1.00;;;;;;;9.01;50.83;98671.79;224814;1283;22845;-82
2023/04/26 16:34:37;;;;;;;3.00;0.80;;;;;;;8.85;50.87;98674.36;224829;1283;22559;-82
2023/04/26 16:39:40;;;;;;;3.00;1.10;;;;;;;8.76;51.36;98675.52;224764;1284;22549;-81
2023/04/26 16:44:41;;;;;;;4.60;1.30;;;;;;;8.77;51.78;98680.31;224890;1280;22563;-82
2023/04/26 16:49:44;;;;;;;4.20;1.20;;;;;;;8.81;51.92;98683.51;224813;1261;22548;-82
2023/04/26 16:54:45;;;;;;;3.40;1.60;;;;;;;8.84;52.21;98685.52;224849;1281;22715;-80
2023/04/26 16:59:48;;;;;;;7.10;1.40;;;;;;;8.91;53.02;98687.37;224698;1284;22561;-79
2023/04/26 17:04:50;;;;;;;4.00;1.60;;;;;;;8.87;53.37;98691.00;224686;1284;24270;-79
2023/04/26 17:09:54;;;;;;;5.30;1.60;;;;;;;8.71;53.57;98690.48;224847;1277;22569;-83
2023/04/26 17:14:56;;;;;;;4.20;1.50;;;;;;;8.54;54.43;98699.94;224731;1284;22533;-81
2023/04/26 17:19:58;;;;;;;3.30;1.50;;;;;;;8.34;54.53;98707.26;224829;1283;22531;-80
2023/04/26 17:25:00;;;;;;;4.90;1.70;;;;;;;8.19;55.11;98714.08;224713;1277;24281;-83
2023/04/26 17:30:02;;;;;;;3.80;2.00;;;;;;;8.10;55.58;98716.39;224806;1282;22554;-81
2023/04/26 17:35:06;;;;;;;4.10;1.80;;;;;;;8.01;55.77;98713.27;224733;1282;22529;-81
2023/04/26 17:40:09;;;;;;;5.40;1.90;;;;;;;7.91;55.88;98715.20;224768;1282;22571;-79
2023/04/26 17:45:11;;;;;;;3.30;1.60;;;;;;;7.77;56.42;98721.33;224855;1277;26729;-82
2023/04/26 17:50:16;;;;;;;6.30;2.10;;;;;;;7.64;56.60;98732.13;224804;1283;22541;-80
2023/04/26 17:55:18;;;;;;;4.10;1.50;;;;;;;7.51;56.32;98742.09;224714;1283;22551;-79
2023/04/26 18:00:21;;;;;;;2.70;1.40;;;;;;;7.40;56.79;98747.29;224814;1281;22554;-79
2023/04/26 18:05:23;;;;;;;8.10;3.40;;;;;;;7.30;56.49;98751.90;224950;1277;22557;-82
2023/04/26 18:10:26;;;;;;;4.40;1.70;;;;;;;7.19;56.99;98754.42;224765;1283;22540;-80
2023/04/26 18:15:28;;;;;;;3.70;1.60;;;;;;;7.05;57.43;98756.61;224842;1281;22656;-82
2023/04/26 18:20:30;;;;;;;6.40;1.90;;;;;;;6.89;57.72;98760.96;224849;1281;22555;-81
2023/04/26 18:25:32;;;;;;;4.20;1.80;;;;;;;6.72;57.84;98761.09;224735;1283;22636;-82
2023/04/26 18:30:34;;;;;;;6.50;3.00;;;;;;;6.54;58.41;98768.73;224802;1284;22539;-82
2023/04/26 18:35:36;;;;;;;4.60;2.10;;;;;;;6.38;59.04;98774.67;224741;1284;22555;-81
2023/04/26 18:40:42;;;;;;;7.30;2.30;;;;;;;6.23;59.32;98783.23;224814;1281;22588;-81
2023/04/26 18:45:44;;;;;;;4.40;2.40;;;;;;;6.08;59.67;98787.82;224750;1260;24296;-81
2023/04/26 18:50:50;;;;;;;6.50;2.50;;;;;;;5.96;59.81;98793.55;224665;1284;22526;-81
2023/04/26 18:55:55;;;;;;;9.70;4.00;;;;;;;5.89;60.27;98798.39;224513;1283;22546;-77
2023/04/26 19:00:57;;;;;;;11.20;5.40;;;;;;;5.85;60.50;98804.33;224734;1283;23743;-80
2023/04/26 19:05:59;;;;;;;9.70;6.10;;;;;;;5.82;60.50;98807.24;224549;1284;22658;-79
2023/04/26 19:11:02;;;;;;;10.30;5.60;;;;;;;5.79;60.81;98807.20;224687;1284;22531;-81
2023/04/26 19:16:06;;;;;;;9.80;4.90;;;;;;;5.74;60.87;98812.80;224786;1283;22573;-81
2023/04/26 19:21:09;;;;;;;9.80;4.80;;;;;;;5.69;61.24;98810.53;224784;1284;22569;-79
2023/04/26 19:26:12;;;;;;;11.80;5.50;;;;;;;5.64;61.27;98805.55;224753;1284;22765;-79
2023/04/26 19:31:14;;;;;;;12.60;6.30;;;;;;;5.60;61.40;98806.73;224781;1278;22551;-84
2023/04/26 19:36:17;;;;;;;10.10;5.90;;;;;;;5.58;61.43;98811.53;224747;1283;25312;-80
2023/04/26 19:41:22;;;;;;;12.70;6.10;;;;;;;5.54;61.79;98817.32;224828;1283;22541;-81
2023/04/26 19:46:24;;;;;;;12.20;5.90;;;;;;;5.48;61.76;98816.05;224811;1280;22543;-80
2023/04/26 19:51:27;;;;;;;9.30;5.60;;;;;;;5.40;61.98;98815.73;224692;1284;25464;-84
2023/04/26 19:56:29;;;;;;;10.30;6.10;;;;;;;5.32;62.30;98819.74;224822;1284;22467;-80
2023/04/26 20:01:33;;;;;;;19.00;10.10;;;;;;;5.21;62.47;98819.38;224780;1283;22544;-79
2023/04/26 20:06:36;;;;;;;21.80;12.30;;;;;;;5.10;62.78;98824.03;224768;1283;22614;-81
2023/04/26 20:11:38;;;;;;;26.70;13.40;;;;;;;4.96;63.11;98831.66;224739;1283;25436;-82
2023/04/26 20:16:40;;;;;;;26.60;14.40;;;;;;;4.80;63.23;98837.75;224845;1282;24332;-79
2023/04/26 20:21:43;;;;;;;24.10;12.80;;;;;;;4.65;63.46;98835.99;224756;1284;22577;-81
2023/04/26 20:26:45;;;;;;;18.10;11.20;;;;;;;4.47;63.71;98839.58;224741;1278;23864;-78
2023/04/26 20:31:47;;;;;;;17.30;10.00;;;;;;;4.32;63.96;98841.11;224793;1282;22541;-79
2023/04/26 20:36:49;;;;;;;17.30;10.10;;;;;;;4.18;64.37;98840.66;224796;1280;22647;-78
2023/04/26 20:41:51;;;;;;;17.40;10.20;;;;;;;4.06;64.67;98845.17;224774;1280;22541;-80
2023/04/26 20:46:53;;;;;;;18.10;8.80;;;;;;;3.93;65.15;98846.70;224801;1280;22536;-78
2023/04/26 20:51:55;;;;;;;15.60;9.10;;;;;;;3.81;65.39;98844.39;224770;1280;22688;-79
2023/04/26 20:56:57;;;;;;;15.20;8.70;;;;;;;3.71;65.62;98850.59;224754;1283;26533;-80
2023/04/26 21:02:00;;;;;;;19.20;11.20;;;;;;;3.62;65.90;98854.02;224781;1280;22532;-81
2023/04/26 21:07:03;;;;;;;20.60;11.60;;;;;;;3.55;66.11;98859.49;224785;1277;22559;-78
2023/04/26 21:12:09;;;;;;;21.50;12.20;;;;;;;3.51;66.50;98858.13;224691;1283;22578;-77
2023/04/26 21:17:14;;;;;;;27.10;14.40;;;;;;;3.46;66.78;98861.02;224802;1284;22531;-78
2023/04/26 21:22:16;;;;;;;28.60;15.80;;;;;;;3.40;67.05;98864.97;224823;1280;22586;-80
2023/04/26 21:27:18;;;;;;;28.50;15.70;;;;;;;3.34;67.12;98869.48;224774;1283;22526;-79
2023/04/26 21:32:20;;;;;;;30.60;16.30;;;;;;;3.28;67.40;98873.36;224758;1283;22605;-80
2023/04/26 21:37:23;;;;;;;29.20;16.20;;;;;;;3.22;67.66;98880.16;224810;1280;24206;-82
2023/04/26 21:42:28;;;;;;;22.50;14.00;;;;;;;3.17;67.86;98877.27;224772;1282;24443;-81
2023/04/26 21:47:50;;;;;;;27.10;16.50;;;;;;;3.14;68.08;98882.21;224751;1277;22554;-80
2023/04/26 21:52:53;;;;;;;32.70;18.00;;;;;;;3.13;68.20;98885.16;224736;1284;24248;-77
2023/04/26 21:57:55;;;;;;;31.20;18.00;;;;;;;3.13;68.27;98891.36;224803;1281;22568;-78
2023/04/26 22:02:58;;;;;;;36.50;20.90;;;;;;;3.15;68.57;98895.41;224770;1283;22607;-81
2023/04/26 22:08:00;;;;;;;31.90;18.30;;;;;;;3.18;68.62;98901.55;224652;1279;22525;-81
2023/04/26 22:13:04;;;;;;;28.50;16.20;;;;;;;3.21;68.62;98907.09;224737;1283;22843;-81
2023/04/26 22:18:06;;;;;;;22.00;13.40;;;;;;;3.23;68.76;98905.14;224772;1283;22543;-81
2023/04/26 22:23:09;;;;;;;23.70;12.50;;;;;;;3.27;68.85;98910.45;224446;1281;372762;-80
2023/04/26 22:28:11;;;;;;;21.50;11.70;;;;;;;3.30;68.86;98912.48;224734;1283;22533;-80
2023/04/26 22:33:13;;;;;;;20.00;11.50;;;;;;;3.33;68.93;98916.73;224779;1280;23989;-79
2023/04/26 22:38:16;;;;;;;25.40;11.60;;;;;;;3.37;68.99;98915.63;224731;1283;22547;-79
2023/04/26 22:43:18;;;;;;;21.60;11.90;;;;;;;3.44;69.11;98919.77;224680;1284;22552;-82
2023/04/26 22:48:20;;;;;;;20.50;12.10;;;;;;;3.49;68.96;98920.83;224739;1283;22550;-82
2023/04/26 22:53:22;;;;;;;21.70;12.80;;;;;;;3.51;68.86;98918.39;224751;1284;25010;-80
2023/04/26 22:58:24;;;;;;;24.20;12.60;;;;;;;3.53;68.76;98922.38;224791;1284;22529;-79
2023/04/26 23:03:26;;;;;;;23.50;12.70;;;;;;;3.53;68.88;98921.19;224779;1283;22563;-80
2023/04/26 23:08:30;;;;;;;22.40;12.80;;;;;;;3.52;68.96;98925.81;224797;1280;22528;-79
2023/04/26 23:13:32;;;;;;;22.20;12.90;;;;;;;3.50;69.05;98926.99;224840;1283;22529;-79
2023/04/26 23:18:34;;;;;;;22.50;13.40;;;;;;;3.47;69.01;98931.86;224828;1281;22539;-79
2023/04/26 23:23:36;;;;;;;25.00;12.40;;;;;;;3.44;69.24;98934.05;224778;1274;22554;-80
2023/04/26 23:28:38;;;;;;;24.40;13.30;;;;;;;3.40;69.49;98935.77;224751;1282;22567;-80
2023/04/26 23:33:40;;;;;;;22.70;12.80;;;;;;;3.38;69.60;98938.04;224817;1284;22539;-80